Time;durP1;ratioP1;P1;durP2;ratioP2;P2;SDS_P1;SDS_P2;PMS_P1;PMS_P2;Temp;Humidity;BMP_temperature;BMP_pressure;BME280_temperature;BME280_humidity;BME280_pressure;Samples;Min_cycle;Max_cycle;Signal;HPM_P1;HPM_P2
2021/11/23 00:03:17;;;;;;;8.00;3.13;;;;;;;0.73;100.00;103499.91;10588447;28;20039;-59
2021/11/23 00:08:20;;;;;;;8.05;2.28;;;;;;;0.57;100.00;103497.72;10588503;28;20490;-58
2021/11/23 00:13:22;;;;;;;7.25;2.67;;;;;;;0.78;100.00;103506.06;10588372;28;20055;-59
2021/11/23 00:18:25;;;;;;;9.85;3.67;;;;;;;0.61;100.00;103487.53;10588346;28;20055;-58
2021/11/23 00:23:27;;;;;;;12.18;3.05;;;;;;;0.77;100.00;103491.41;10587894;28;20495;-60
2021/11/23 00:28:30;;;;;;;10.95;3.20;;;;;;;0.81;100.00;103482.94;10587581;28;20048;-60
2021/11/23 00:33:40;;;;;;;9.27;2.65;;;;;;;0.55;100.00;103474.47;10587483;28;20059;-58
2021/11/23 00:38:44;;;;;;;5.43;3.35;;;;;;;0.77;100.00;103481.09;10587455;28;20040;-58
2021/11/23 00:43:47;;;;;;;10.70;3.08;;;;;;;0.81;100.00;103472.59;10587034;28;20139;-59
2021/11/23 00:48:50;;;;;;;11.73;3.58;;;;;;;0.97;100.00;103468.69;10568945;28;20082;-59
2021/11/23 00:53:52;;;;;;;10.38;4.25;;;;;;;1.00;100.00;103476.53;10586561;28;20048;-59
2021/11/23 00:58:54;;;;;;;11.23;3.97;;;;;;;1.27;100.00;103489.25;10586135;28;20051;-59
2021/11/23 01:03:56;;;;;;;10.20;3.38;;;;;;;1.02;100.00;103474.84;10586610;28;20044;-57
2021/11/23 01:08:59;;;;;;;15.40;3.95;;;;;;;1.19;100.00;103464.94;10568070;28;20483;-57
2021/11/23 01:14:01;;;;;;;13.32;3.63;;;;;;;1.20;100.00;103471.88;10585806;28;20074;-57
2021/11/23 01:19:06;;;;;;;13.85;3.85;;;;;;;1.11;100.00;103454.44;10586244;28;20055;-59
2021/11/23 01:24:10;;;;;;;16.48;4.00;;;;;;;1.11;100.00;103440.69;10585784;28;20052;-59
2021/11/23 01:29:12;;;;;;;13.27;4.47;;;;;;;1.28;100.00;103441.97;10585461;28;20044;-57
2021/11/23 01:34:19;;;;;;;12.27;5.80;;;;;;;1.27;100.00;103450.53;10586070;28;20051;-55
2021/11/23 01:39:22;;;;;;;5.55;2.97;;;;;;;1.13;100.00;103451.03;10585027;28;20123;-58
2021/11/23 01:44:25;;;;;;;7.30;3.33;;;;;;;1.37;100.00;103474.00;10584480;28;20067;-58
2021/11/23 01:49:27;;;;;;;8.10;3.10;;;;;;;1.50;100.00;103478.59;10584519;28;20055;-60
2021/11/23 01:54:30;;;;;;;12.13;3.42;;;;;;;1.81;100.00;103493.06;10584840;28;20043;-60
2021/11/23 01:59:32;;;;;;;6.88;3.35;;;;;;;1.36;100.00;103485.13;10584325;28;20066;-59
2021/11/23 02:04:34;;;;;;;3.20;2.55;;;;;;;1.75;100.00;103495.53;10584232;28;20048;-59
2021/11/23 02:09:37;;;;;;;9.75;2.63;;;;;;;1.75;100.00;103458.47;10583604;28;20419;-58
2021/11/23 02:14:39;;;;;;;3.28;2.70;;;;;;;1.99;100.00;103459.03;10565711;28;20078;-60
2021/11/23 02:19:54;;;;;;;7.32;3.03;;;;;;;2.07;100.00;103472.13;10583374;28;20040;-57
2021/11/23 02:24:56;;;;;;;13.02;3.83;;;;;;;2.18;100.00;103485.25;10565127;28;20047;-56
2021/11/23 02:29:59;;;;;;;10.77;4.25;;;;;;;2.08;100.00;103471.25;10582731;28;20407;-59
2021/11/23 02:35:01;;;;;;;13.18;3.90;;;;;;;2.13;100.00;103466.19;10582810;28;20502;-58
2021/11/23 02:40:04;;;;;;;10.80;4.65;;;;;;;2.28;100.00;103469.09;10582468;28;20407;-57
2021/11/23 02:45:07;;;;;;;10.48;3.70;;;;;;;2.22;100.00;103446.56;10582229;28;20216;-60
2021/11/23 02:50:13;;;;;;;4.88;3.30;;;;;;;2.13;100.00;103440.34;10564385;28;20043;-59
2021/11/23 02:55:17;;;;;;;7.97;3.35;;;;;;;2.47;100.00;103431.56;10564804;28;20052;-58
2021/11/23 03:00:25;;;;;;;7.82;3.47;;;;;;;2.31;100.00;103427.78;10582177;28;20117;-58
2021/11/23 03:05:28;;;;;;;10.27;2.65;;;;;;;2.72;100.00;103437.16;10582318;28;20055;-60
2021/11/23 03:10:31;;;;;;;16.98;3.60;;;;;;;2.69;100.00;103429.31;10581878;28;20061;-61
2021/11/23 03:15:34;;;;;;;7.78;3.47;;;;;;;3.31;100.00;103442.47;10581491;28;20090;-59
2021/11/23 03:20:37;;;;;;;7.78;3.95;;;;;;;3.07;100.00;103432.56;10587385;28;20384;-60
2021/11/23 03:25:39;;;;;;;14.30;5.10;;;;;;;3.02;100.00;103435.94;10590360;28;20055;-59
2021/11/23 03:30:42;;;;;;;13.18;5.13;;;;;;;2.85;100.00;103428.75;10572280;28;20044;-58
2021/11/23 03:35:45;;;;;;;13.23;6.75;;;;;;;2.96;100.00;103437.59;10589991;28;20483;-59
2021/11/23 03:40:48;;;;;;;11.23;6.38;;;;;;;2.70;100.00;103436.25;10589610;28;20051;-61
2021/11/23 03:45:50;;;;;;;10.45;5.78;;;;;;;2.95;100.00;103434.97;10589461;28;20047;-59
2021/11/23 03:50:52;;;;;;;12.88;7.63;;;;;;;2.72;100.00;103419.03;10589345;28;20048;-59
2021/11/23 03:55:54;;;;;;;9.50;5.57;;;;;;;2.88;100.00;103408.13;10589434;28;20048;-59
2021/11/23 04:00:57;;;;;;;10.48;6.13;;;;;;;2.91;100.00;103412.47;10588830;28;20059;-58
2021/11/23 04:06:00;;;;;;;14.02;6.78;;;;;;;2.88;100.00;103405.53;10588646;28;20088;-59
2021/11/23 04:11:02;;;;;;;13.00;7.70;;;;;;;3.02;100.00;103417.81;10570315;28;20046;-58
2021/11/23 04:16:04;;;;;;;9.23;6.05;;;;;;;2.82;100.00;103409.72;10570702;28;20052;-60
2021/11/23 04:21:07;;;;;;;12.45;7.80;;;;;;;3.20;100.00;103414.66;10588105;28;20451;-59
2021/11/23 04:26:09;;;;;;;9.43;7.20;;;;;;;3.17;100.00;103413.75;10588395;28;20047;-61
2021/11/23 04:31:11;;;;;;;11.10;7.55;;;;;;;3.09;100.00;103406.72;10569438;28;20044;-61
2021/11/23 04:36:14;;;;;;;12.07;7.97;;;;;;;3.20;100.00;103412.94;10587605;28;20395;-60
2021/11/23 04:41:16;;;;;;;13.30;7.63;;;;;;;3.54;100.00;103413.41;10587624;28;20043;-59
2021/11/23 04:46:19;;;;;;;13.60;6.75;;;;;;;4.05;100.00;103424.44;10587071;28;20059;-58
2021/11/23 04:51:22;;;;;;;14.30;7.78;;;;;;;3.88;100.00;103419.03;10569453;28;20055;-60
2021/11/23 04:56:24;;;;;;;13.02;6.95;;;;;;;4.32;100.00;103421.31;10568995;28;20047;-59
2021/11/23 05:01:26;;;;;;;10.95;5.38;;;;;;;4.47;100.00;103425.75;10586395;28;20055;-60
2021/11/23 05:06:30;;;;;;;13.68;6.25;;;;;;;4.07;100.00;103412.38;10586535;28;20051;-60
2021/11/23 05:11:35;;;;;;;15.25;6.38;;;;;;;4.79;100.00;103428.69;10586159;28;20044;-59
2021/11/23 05:16:38;;;;;;;18.30;6.28;;;;;;;4.92;100.00;103279.06;10586575;28;20051;-59
2021/11/23 05:21:40;;;;;;;13.25;6.75;;;;;;;4.91;100.00;103354.34;10567791;28;20054;-60
2021/11/23 05:26:43;;;;;;;13.38;6.43;;;;;;;5.03;100.00;103396.00;10585964;28;20086;-59
2021/11/23 05:31:45;;;;;;;21.40;7.22;;;;;;;5.28;100.00;103397.03;10585652;28;20054;-59
2021/11/23 05:36:47;;;;;;;13.35;7.15;;;;;;;5.01;100.00;103388.19;10585103;28;20059;-61
2021/11/23 05:41:50;;;;;;;14.82;8.35;;;;;;;4.98;100.00;103376.91;10584391;28;20052;-60
2021/11/23 05:46:52;;;;;;;17.55;7.85;;;;;;;5.06;100.00;103375.25;10584695;28;20058;-59
2021/11/23 05:51:55;;;;;;;20.65;8.32;;;;;;;5.26;100.00;103383.16;10584480;28;20048;-60
2021/11/23 05:56:57;;;;;;;14.75;7.63;;;;;;;5.20;100.00;103378.78;10584369;28;20062;-59
2021/11/23 06:02:00;;;;;;;14.98;8.48;;;;;;;5.26;100.00;103388.38;10584394;28;20047;-59
2021/11/23 06:07:02;;;;;;;14.93;8.27;;;;;;;5.34;100.00;103394.44;10583784;28;20079;-58
2021/11/23 06:12:05;;;;;;;15.27;8.88;;;;;;;5.30;100.00;103389.25;10583748;28;20048;-60
2021/11/23 06:17:10;;;;;;;24.10;8.73;;;;;;;5.32;100.00;103378.00;10583495;28;20052;-60
2021/11/23 06:22:12;;;;;;;22.63;10.57;;;;;;;5.15;100.00;103379.63;10583177;28;20050;-60
2021/11/23 06:27:15;;;;;;;25.30;12.18;;;;;;;5.32;100.00;103379.72;10583195;28;20070;-59
2021/11/23 06:32:17;;;;;;;32.10;13.07;;;;;;;5.37;100.00;103388.41;10582592;28;20407;-59
2021/11/23 06:37:20;;;;;;;25.67;14.20;;;;;;;5.48;100.00;103402.34;10583413;28;20044;-60
2021/11/23 06:42:22;;;;;;;30.25;14.98;;;;;;;5.50;100.00;103403.22;10582207;28;20055;-59
2021/11/23 06:47:24;;;;;;;27.83;12.68;;;;;;;5.46;100.00;103400.59;10582353;28;20506;-59
2021/11/23 06:52:27;;;;;;;27.17;14.52;;;;;;;5.46;100.00;103404.03;10581545;28;20051;-60
2021/11/23 06:57:29;;;;;;;25.30;14.45;;;;;;;5.50;100.00;103404.97;10582168;28;20058;-59
2021/11/23 07:02:31;;;;;;;39.47;15.68;;;;;;;5.43;100.00;103397.97;10582042;28;20043;-59
2021/11/23 07:07:34;;;;;;;25.23;12.98;;;;;;;5.39;100.00;103394.50;10582087;28;20372;-60
2021/11/23 07:12:36;;;;;;;30.67;14.10;;;;;;;5.47;100.00;103408.41;10581722;28;20391;-61
2021/11/23 07:17:39;;;;;;;25.50;12.98;;;;;;;5.44;100.00;103410.13;10582153;28;20047;-61
2021/11/23 07:22:41;;;;;;;25.73;13.90;;;;;;;5.44;100.00;103443.91;10581511;28;20058;-59
2021/11/23 07:27:46;;;;;;;22.98;14.50;;;;;;;5.48;100.00;103534.88;10582166;28;20055;-59
2021/11/23 07:32:49;;;;;;;24.88;12.00;;;;;;;5.43;100.00;103541.78;10581196;28;20047;-60
2021/11/23 07:37:51;;;;;;;28.23;14.25;;;;;;;5.51;100.00;103599.84;10563168;28;20054;-60
2021/11/23 07:42:54;;;;;;;20.08;13.20;;;;;;;5.64;100.00;103623.38;10581573;28;20490;-61
2021/11/23 07:48:12;;;;;;;23.88;14.32;;;;;;;5.74;100.00;103623.44;10581523;28;20043;-60
2021/11/23 07:53:14;;;;;;;21.10;13.77;;;;;;;5.77;100.00;103648.59;10581361;28;20064;-60
2021/11/23 07:58:17;;;;;;;21.77;13.13;;;;;;;5.82;100.00;103692.84;10581051;28;20055;-60
2021/11/23 08:03:19;;;;;;;27.30;15.07;;;;;;;6.02;100.00;103708.63;10580593;28;20051;-60
2021/11/23 08:08:22;;;;;;;23.33;14.07;;;;;;;6.06;100.00;103728.63;10588811;28;20043;-60
2021/11/23 08:13:24;;;;;;;24.77;11.63;;;;;;;6.02;100.00;103735.53;10570142;28;20134;-59
2021/11/23 08:18:27;;;;;;;29.30;13.55;;;;;;;5.99;100.00;103729.44;10588531;28;20113;-60
2021/11/23 08:23:29;;;;;;;25.48;14.55;;;;;;;6.03;100.00;103750.28;10588054;28;20043;-61
2021/11/23 08:28:31;;;;;;;27.17;15.57;;;;;;;5.89;100.00;103757.06;10588479;28;20043;-59
2021/11/23 08:33:34;;;;;;;30.50;16.42;;;;;;;5.97;100.00;103770.16;10587701;28;20092;-60
2021/11/23 08:38:37;;;;;;;20.00;14.25;;;;;;;6.18;100.00;103805.91;10588091;28;20051;-61
2021/11/23 08:43:40;;;;;;;19.38;12.98;;;;;;;6.19;100.00;103799.84;10586798;28;20403;-59
2021/11/23 08:48:44;;;;;;;23.38;12.38;;;;;;;6.07;100.00;103808.38;10586909;28;20047;-60
2021/11/23 08:53:47;;;;;;;20.80;13.38;;;;;;;6.02;100.00;103807.47;10587019;28;20404;-60
2021/11/23 08:58:53;;;;;;;17.00;11.48;;;;;;;6.56;100.00;103840.06;10586719;28;20051;-59
2021/11/23 09:03:55;;;;;;;19.00;8.23;;;;;;;6.57;100.00;103872.19;10586637;28;20044;-60
2021/11/23 09:08:59;;;;;;;18.05;13.50;;;;;;;6.29;100.00;103853.72;10586268;28;20048;-61
2021/11/23 09:14:01;;;;;;;23.00;12.05;;;;;;;6.41;100.00;103863.38;10586224;28;20048;-59
2021/11/23 09:19:04;;;;;;;15.40;12.52;;;;;;;6.67;100.00;103895.72;10584733;28;20407;-60
2021/11/23 09:24:06;;;;;;;18.80;12.13;;;;;;;6.74;100.00;103875.81;10585745;28;20050;-60
2021/11/23 09:29:09;;;;;;;23.38;13.82;;;;;;;6.74;100.00;103847.16;10585473;28;20048;-60
2021/11/23 09:34:12;;;;;;;15.82;11.85;;;;;;;7.71;100.00;103870.28;10585257;28;20498;-59
2021/11/23 09:39:14;;;;;;;22.58;12.55;;;;;;;8.09;100.00;103859.09;10584764;28;20403;-60
2021/11/23 09:44:16;;;;;;;15.27;11.98;;;;;;;7.35;100.00;103836.25;10584547;28;20048;-62
2021/11/23 09:49:19;;;;;;;19.33;12.18;;;;;;;6.85;100.00;103814.25;10566495;28;20043;-59
2021/11/23 09:54:22;;;;;;;14.57;11.18;;;;;;;7.27;100.00;103824.03;10584177;28;20487;-61
2021/11/23 09:59:24;;;;;;;15.15;11.75;;;;;;;7.78;100.00;103838.13;10584701;28;20048;-60
2021/11/23 10:04:28;;;;;;;20.05;11.75;;;;;;;8.71;100.00;103853.06;10584213;28;20047;-60
2021/11/23 10:09:37;;;;;;;12.13;9.65;;;;;;;8.23;100.00;103828.66;10583734;28;20047;-59
2021/11/23 10:14:41;;;;;;;16.80;11.05;;;;;;;8.23;100.00;103815.59;10565595;28;20043;-61
2021/11/23 10:19:43;;;;;;;15.02;10.65;;;;;;;7.93;100.00;103814.69;10583337;28;20051;-61
2021/11/23 10:24:49;;;;;;;19.90;12.50;;;;;;;8.22;100.00;103807.78;10583874;28;20058;-59
2021/11/23 10:29:52;;;;;;;13.55;8.80;;;;;;;7.93;100.00;103806.84;10582996;28;20391;-60
2021/11/23 10:34:54;;;;;;;12.27;10.98;;;;;;;7.94;100.00;103794.72;10582897;28;20059;-60
2021/11/23 10:40:20;;;;;;;11.55;8.52;;;;;;;8.07;100.00;103793.84;10583035;28;20054;-60
2021/11/23 10:45:22;;;;;;;11.20;8.93;;;;;;;8.54;100.00;103792.16;10564525;28;20125;-60
2021/11/23 10:50:25;;;;;;;13.75;9.25;;;;;;;8.82;100.00;103785.13;10582300;28;20380;-60
2021/11/23 10:55:30;;;;;;;15.70;9.90;;;;;;;8.80;100.00;103792.09;10582267;28;20059;-62
2021/11/23 11:00:34;;;;;;;11.48;9.68;;;;;;;8.92;100.00;103775.53;10582795;28;20052;-60
2021/11/23 11:05:40;;;;;;;11.70;9.57;;;;;;;8.88;100.00;103771.19;10581787;28;20051;-61
2021/11/23 11:10:42;;;;;;;14.10;10.48;;;;;;;8.81;100.00;103761.59;10582113;28;20052;-59
2021/11/23 11:15:49;;;;;;;14.38;8.93;;;;;;;8.95;100.00;103758.97;10581928;28;20055;-60
2021/11/23 11:21:00;;;;;;;14.88;9.52;;;;;;;9.07;100.00;103767.63;10582077;28;20054;-60
2021/11/23 11:31:38;;;;;;;16.17;11.35;;;;;;;8.65;100.00;103755.56;10581368;28;20487;-60
2021/11/23 11:36:42;;;;;;;22.27;14.25;;;;;;;8.54;100.00;103805.22;10581597;28;20086;-60
2021/11/23 11:41:44;;;;;;;19.13;12.68;;;;;;;8.29;100.00;103759.94;10586970;28;20056;-60
2021/11/23 11:47:00;;;;;;;26.67;15.32;;;;;;;8.41;100.00;103757.31;10589840;28;20078;-60
2021/11/23 11:52:04;;;;;;;23.80;13.75;;;;;;;8.66;100.00;103750.34;10589964;28;20047;-60
2021/11/23 11:57:29;;;;;;;17.42;12.23;;;;;;;8.98;100.00;103745.88;10589176;28;20053;-60
2021/11/23 12:02:31;;;;;;;21.77;13.57;;;;;;;9.46;100.00;103751.78;10588743;28;20047;-60
2021/11/23 12:07:47;;;;;;;21.92;14.88;;;;;;;8.98;100.00;103728.47;10588858;28;20075;-59
2021/11/23 12:12:55;;;;;;;18.80;12.77;;;;;;;9.27;100.00;103727.47;10588466;28;20056;-59
2021/11/23 12:18:21;;;;;;;22.67;14.30;;;;;;;9.05;100.00;103717.13;10588519;28;20059;-60
2021/11/23 12:23:57;;;;;;;25.15;13.75;;;;;;;9.35;100.00;103724.84;10588567;28;20053;-60
2021/11/23 12:29:01;;;;;;;25.23;14.55;;;;;;;9.25;100.00;103717.03;10569214;28;20048;-59
2021/11/23 12:34:06;;;;;;;23.70;13.63;;;;;;;9.29;100.00;103712.63;10588111;28;20040;-60
2021/11/23 12:39:14;;;;;;;37.72;15.68;;;;;;;9.14;100.00;103695.28;10587402;28;20062;-61
2021/11/23 12:44:26;;;;;;;24.45;14.77;;;;;;;9.07;100.00;103680.53;10587921;28;20138;-59
2021/11/23 12:49:33;;;;;;;20.85;13.30;;;;;;;9.07;100.00;103689.22;10586455;28;20488;-58
2021/11/23 12:54:38;;;;;;;21.13;14.77;;;;;;;9.01;100.00;103684.03;10585940;28;20054;-61
2021/11/23 12:59:58;;;;;;;19.60;15.13;;;;;;;8.92;100.00;103677.09;10586783;28;20047;-58
2021/11/23 13:05:14;;;;;;;24.95;16.55;;;;;;;8.79;100.00;103670.19;10586800;28;20056;-58
2021/11/23 13:10:19;;;;;;;20.60;15.40;;;;;;;8.86;100.00;103681.47;10586221;28;20075;-58
2021/11/23 13:15:25;;;;;;;28.52;17.85;;;;;;;8.62;100.00;103657.19;10586703;28;20402;-58
2021/11/23 13:20:44;;;;;;;25.20;17.65;;;;;;;8.65;100.00;103658.94;10585839;28;20047;-58
2021/11/23 13:25:48;;;;;;;28.63;19.90;;;;;;;8.55;100.00;103635.44;10586329;28;20047;-58
2021/11/23 13:30:56;;;;;;;20.73;15.80;;;;;;;8.77;100.00;103640.59;10567604;28;20043;-58
2021/11/23 13:36:06;;;;;;;24.77;17.77;;;;;;;8.58;100.00;103631.09;10585339;28;20047;-59
2021/11/23 13:41:17;;;;;;;25.58;17.13;;;;;;;8.31;100.00;103619.84;10585233;28;20051;-58
2021/11/23 13:46:45;;;;;;;23.80;14.93;;;;;;;8.73;100.00;103620.59;10584857;28;20476;-58
2021/11/23 13:52:11;;;;;;;25.13;16.63;;;;;;;8.84;100.00;103625.75;10567366;28;20047;-58
2021/11/23 13:57:38;;;;;;;23.33;14.73;;;;;;;8.89;100.00;103630.09;10584055;28;20048;-60
2021/11/23 14:02:49;;;;;;;22.88;15.38;;;;;;;9.11;100.00;103620.38;10570677;28;20044;-59
2021/11/23 14:07:54;;;;;;;22.63;15.07;;;;;;;9.20;100.00;103626.44;10583815;28;20476;-58
2021/11/23 14:13:02;;;;;;;18.10;12.82;;;;;;;9.24;100.00;103626.38;10584003;28;20050;-58
2021/11/23 14:18:11;;;;;;;14.82;12.05;;;;;;;9.16;100.00;103627.31;10583494;28;20402;-57
2021/11/23 14:23:22;;;;;;;19.92;13.05;;;;;;;8.95;100.00;103617.88;10583424;28;20051;-58
2021/11/23 14:28:25;;;;;;;15.60;10.63;;;;;;;9.07;100.00;103634.34;10583533;28;20048;-59
2021/11/23 14:33:27;;;;;;;16.75;10.85;;;;;;;8.81;100.00;103615.31;10583124;28;20052;-58
2021/11/23 14:38:30;;;;;;;19.25;10.57;;;;;;;8.58;100.00;103612.81;10582807;28;20479;-58
2021/11/23 14:43:32;;;;;;;14.95;10.00;;;;;;;8.38;100.00;103611.97;10582895;28;20055;-57
2021/11/23 14:48:35;;;;;;;21.45;11.88;;;;;;;8.16;100.00;103605.06;10582426;28;20408;-58
2021/11/23 14:53:56;;;;;;;19.42;12.18;;;;;;;8.11;100.00;103605.09;10582554;28;20059;-59
2021/11/23 14:59:00;;;;;;;20.02;11.65;;;;;;;8.05;100.00;103594.66;10582129;28;20435;-58
2021/11/23 15:04:02;;;;;;;22.98;15.10;;;;;;;8.07;100.00;103599.88;10581805;28;20488;-59
2021/11/23 15:09:04;;;;;;;16.90;13.13;;;;;;;8.10;100.00;103587.72;10581929;28;20044;-58
2021/11/23 15:14:07;;;;;;;17.95;12.55;;;;;;;7.86;100.00;103588.59;10581148;28;20043;-60
2021/11/23 15:19:10;;;;;;;19.27;13.95;;;;;;;7.84;100.00;103585.13;10581916;28;20051;-60
2021/11/23 15:24:12;;;;;;;16.25;12.52;;;;;;;7.80;100.00;103578.16;10581456;28;20056;-59
2021/11/23 15:29:14;;;;;;;25.33;11.82;;;;;;;7.85;100.00;103575.56;10581645;28;20050;-59
2021/11/23 15:34:17;;;;;;;21.50;14.40;;;;;;;7.88;100.00;103571.19;10581242;28;20058;-58
2021/11/23 15:39:20;;;;;;;22.33;17.67;;;;;;;7.83;100.00;103557.31;10581227;28;20414;-58
2021/11/23 15:44:22;;;;;;;34.83;24.48;;;;;;;7.63;100.00;103566.03;10581279;28;20047;-59
2021/11/23 15:49:25;;;;;;;15.90;12.50;;;;;;;7.74;100.00;103563.41;10581230;28;20048;-59
2021/11/23 15:54:29;;;;;;;16.45;13.40;;;;;;;7.80;100.00;103557.31;10581138;28;20047;-59
2021/11/23 15:59:32;;;;;;;17.02;12.07;;;;;;;7.74;100.00;103565.16;10580982;28;20048;-59
2021/11/23 16:04:34;;;;;;;19.45;13.85;;;;;;;7.88;100.00;103573.81;10580958;28;20079;-60
2021/11/23 16:09:36;;;;;;;13.80;10.32;;;;;;;7.95;100.00;103578.16;10580590;28;20044;-60
2021/11/23 16:14:39;;;;;;;18.40;12.60;;;;;;;7.92;100.00;103567.72;10580785;28;20055;-59
2021/11/23 16:19:42;;;;;;;19.30;12.70;;;;;;;7.48;100.00;103554.72;10562737;28;20074;-59
2021/11/23 16:24:44;;;;;;;14.45;11.60;;;;;;;7.62;100.00;103559.06;10580974;28;20551;-60
2021/11/23 16:29:53;;;;;;;16.70;13.23;;;;;;;7.58;100.00;103566.88;10588168;28;20043;-59
2021/11/23 16:34:55;;;;;;;21.10;14.27;;;;;;;7.59;100.00;103553.00;10569715;28;20061;-60
2021/11/23 16:39:58;;;;;;;19.02;15.70;;;;;;;7.47;100.00;103579.94;10587801;28;20051;-60
2021/11/23 16:45:01;;;;;;;25.73;13.82;;;;;;;7.34;100.00;103576.44;10588020;28;20056;-59
2021/11/23 16:50:08;;;;;;;18.45;13.68;;;;;;;7.25;100.00;103566.03;10587478;28;20044;-59
2021/11/23 16:55:11;;;;;;;22.20;15.35;;;;;;;7.50;100.00;103566.03;10587022;28;20048;-61
2021/11/23 17:00:16;;;;;;;18.10;13.23;;;;;;;7.41;100.00;103569.50;10569243;28;20054;-59
2021/11/23 17:05:18;;;;;;;18.42;12.05;;;;;;;7.60;100.00;103557.34;10586610;28;20048;-59
2021/11/23 17:10:20;;;;;;;20.17;12.20;;;;;;;7.22;100.00;103553.00;10586229;28;20411;-60
2021/11/23 17:15:23;;;;;;;30.67;20.13;;;;;;;7.22;100.00;103550.38;10586303;28;20047;-59
2021/11/23 17:20:25;;;;;;;18.10;13.63;;;;;;;7.10;100.00;103540.81;10585793;28;20054;-59
2021/11/23 17:25:28;;;;;;;22.60;14.77;;;;;;;7.31;100.00;103541.69;10585596;28;20488;-59
2021/11/23 17:30:30;;;;;;;23.42;13.73;;;;;;;7.00;100.00;103533.88;10585442;28;20054;-60
2021/11/23 17:35:34;;;;;;;24.08;13.57;;;;;;;7.01;100.00;103541.69;10585200;28;20043;-59
2021/11/23 17:40:36;;;;;;;13.77;11.63;;;;;;;6.88;100.00;103545.13;10566246;28;20047;-59
2021/11/23 17:45:46;;;;;;;21.58;13.13;;;;;;;6.78;100.00;103539.03;10586139;28;20047;-58
2021/11/23 17:50:48;;;;;;;19.45;13.40;;;;;;;6.74;100.00;103539.91;10584461;28;20044;-60
2021/11/23 17:55:53;;;;;;;12.88;10.18;;;;;;;6.82;100.00;103535.56;10584484;28;20047;-60
2021/11/23 18:00:57;;;;;;;13.98;11.07;;;;;;;6.85;100.00;103540.78;10584632;28;20059;-59
2021/11/23 18:06:00;;;;;;;18.92;11.70;;;;;;;6.74;100.00;103532.09;10583782;28;20048;-58
2021/11/23 18:11:03;;;;;;;16.23;11.02;;;;;;;6.53;100.00;103537.22;10583900;28;20062;-59
2021/11/23 18:16:05;;;;;;;18.70;12.27;;;;;;;6.51;100.00;103526.81;10584015;28;20047;-58
2021/11/23 18:21:08;;;;;;;27.58;12.55;;;;;;;6.64;100.00;103531.19;10583285;28;20043;-59
2021/11/23 18:26:10;;;;;;;14.60;10.27;;;;;;;6.71;100.00;103537.28;10583769;28;20086;-59
2021/11/23 18:31:13;;;;;;;16.20;10.95;;;;;;;6.44;100.00;103522.41;10583389;28;20043;-60
2021/11/23 18:36:16;;;;;;;13.63;8.90;;;;;;;6.47;100.00;103530.25;10583568;28;20044;-60
2021/11/23 18:41:20;;;;;;;21.77;12.50;;;;;;;5.91;100.00;103503.94;10583315;28;20054;-60
2021/11/23 18:46:23;;;;;;;21.67;15.88;;;;;;;5.84;100.00;103501.31;10582587;28;20488;-58
2021/11/23 18:51:30;;;;;;;16.52;9.88;;;;;;;5.81;100.00;103506.50;10582817;28;20058;-59
2021/11/23 18:56:33;;;;;;;13.10;8.02;;;;;;;6.09;100.00;103518.81;10582579;28;20051;-59
2021/11/23 19:01:35;;;;;;;14.13;10.60;;;;;;;6.11;100.00;103516.22;10582295;28;20039;-58
2021/11/23 19:06:38;;;;;;;27.92;15.98;;;;;;;6.19;100.00;103521.47;10582241;28;20052;-59
2021/11/23 19:11:41;;;;;;;33.28;19.73;;;;;;;6.22;100.00;103519.75;10581930;28;20040;-59
2021/11/23 19:16:43;;;;;;;43.50;26.00;;;;;;;6.30;100.00;103525.88;10581977;28;20043;-58
2021/11/23 19:21:45;;;;;;;32.35;20.52;;;;;;;6.41;100.00;103525.91;10581505;28;20442;-59
2021/11/23 19:26:48;;;;;;;18.30;13.40;;;;;;;6.28;100.00;103518.91;10582044;28;20052;-59
2021/11/23 19:31:50;;;;;;;20.73;11.80;;;;;;;6.37;100.00;103520.66;10581462;28;20054;-58
2021/11/23 19:36:53;;;;;;;16.20;10.27;;;;;;;6.56;100.00;103529.44;10582020;28;20063;-58
2021/11/23 19:41:55;;;;;;;18.45;10.85;;;;;;;6.50;100.00;103525.06;10581758;28;20058;-59
2021/11/23 19:46:58;;;;;;;11.30;7.95;;;;;;;6.41;100.00;103525.03;10581536;28;20050;-60
2021/11/23 19:52:01;;;;;;;26.05;11.27;;;;;;;6.45;100.00;103532.84;10581627;28;20070;-59
2021/11/23 19:57:03;;;;;;;11.65;8.55;;;;;;;6.49;100.00;103508.59;10581178;28;20047;-60
2021/11/23 20:02:06;;;;;;;12.82;9.05;;;;;;;6.57;100.00;103518.13;10585485;28;20052;-58
2021/11/23 20:07:09;;;;;;;11.25;7.25;;;;;;;6.69;100.00;103521.66;10588663;28;20495;-59
2021/11/23 20:12:11;;;;;;;16.55;10.02;;;;;;;6.56;100.00;103506.88;10588964;28;20494;-60
2021/11/23 20:17:15;;;;;;;20.05;14.07;;;;;;;6.61;100.00;103509.50;10588533;28;20506;-59
2021/11/23 20:22:22;;;;;;;15.93;12.82;;;;;;;6.55;100.00;103520.72;10588395;28;20044;-60
2021/11/23 20:27:24;;;;;;;15.68;11.55;;;;;;;6.60;100.00;103511.19;10587982;28;20051;-60
2021/11/23 20:32:28;;;;;;;67.88;47.38;;;;;;;6.55;100.00;103504.25;10588076;28;20044;-59
2021/11/23 20:37:30;;;;;;;21.27;14.23;;;;;;;6.58;100.00;103504.28;10587670;28;20445;-59
2021/11/23 20:42:33;;;;;;;23.83;16.88;;;;;;;6.56;100.00;103500.81;10587447;28;20051;-59
2021/11/23 20:47:37;;;;;;;20.17;13.27;;;;;;;6.63;100.00;103499.94;10587437;28;20153;-59
2021/11/23 20:52:40;;;;;;;19.58;13.38;;;;;;;6.65;100.00;103493.84;10587280;28;20047;-58
2021/11/23 20:57:43;;;;;;;11.38;10.25;;;;;;;6.50;100.00;103486.00;10587427;28;20050;-58
2021/11/23 21:02:47;;;;;;;13.48;11.18;;;;;;;6.16;100.00;103477.25;10586645;28;20046;-60
2021/11/23 21:07:49;;;;;;;18.02;12.85;;;;;;;6.23;100.00;103479.84;10586599;28;20051;-61
2021/11/23 21:12:52;;;;;;;20.38;14.82;;;;;;;6.14;100.00;103467.69;10584817;28;20046;-59
2021/11/23 21:17:54;;;;;;;25.25;17.25;;;;;;;6.27;100.00;103470.31;10586519;28;20047;-59
2021/11/23 21:22:57;;;;;;;38.67;24.52;;;;;;;6.39;100.00;103470.38;10585785;28;20503;-59
2021/11/23 21:27:59;;;;;;;27.83;18.65;;;;;;;6.53;100.00;103469.56;10586047;28;20044;-60
2021/11/23 21:33:02;;;;;;;20.40;14.77;;;;;;;6.32;100.00;103456.47;10585575;28;20043;-59
2021/11/23 21:38:04;;;;;;;20.00;15.20;;;;;;;6.38;100.00;103455.63;10585977;28;20050;-59
2021/11/23 21:48:12;;;;;;;17.60;14.45;;;;;;;6.24;100.00;103455.59;10585190;28;20051;-59
2021/11/23 21:53:16;;;;;;;22.77;16.65;;;;;;;6.24;100.00;103454.72;10584526;28;20395;-60
2021/11/23 21:58:18;;;;;;;29.08;17.90;;;;;;;6.25;100.00;103457.31;10584657;28;20052;-59
2021/11/23 22:03:20;;;;;;;28.38;17.48;;;;;;;6.31;100.00;103449.53;10583931;28;20058;-59
2021/11/23 22:08:23;;;;;;;22.25;17.08;;;;;;;6.51;100.00;103459.13;10583913;28;20048;-60
2021/11/23 22:13:28;;;;;;;30.40;20.25;;;;;;;6.40;100.00;103448.69;10583694;28;20039;-59
2021/11/23 22:18:32;;;;;;;19.13;13.88;;;;;;;6.52;100.00;103458.25;10583918;28;20048;-60
2021/11/23 22:23:36;;;;;;;21.17;17.00;;;;;;;6.63;100.00;103453.94;10583302;28;20039;-60
2021/11/23 22:28:39;;;;;;;27.15;17.58;;;;;;;6.39;100.00;103446.97;10582994;28;20498;-58
2021/11/23 22:33:41;;;;;;;20.52;17.05;;;;;;;6.65;100.00;103449.59;10583585;28;20043;-59
2021/11/23 22:38:44;;;;;;;20.42;16.02;;;;;;;6.63;100.00;103453.94;10583282;28;20394;-59
2021/11/23 22:43:46;;;;;;;24.50;17.90;;;;;;;6.37;100.00;103438.28;10582564;28;20043;-58
2021/11/23 22:48:48;;;;;;;24.98;17.90;;;;;;;6.60;100.00;103446.13;10582723;28;20039;-60
2021/11/23 22:53:51;;;;;;;28.95;20.55;;;;;;;6.31;100.00;103439.13;10564514;28;20052;-59
2021/11/23 22:58:53;;;;;;;42.92;24.52;;;;;;;6.41;100.00;103440.03;10565178;28;20044;-60
2021/11/23 23:03:55;;;;;;;23.60;17.90;;;;;;;6.40;100.00;103430.47;10582190;28;20407;-59